ADDS METAR Data

Data at: 0210 UTC 24 Nov 2017

METAR for:KISP (Islip/Macarthur Arpt, NY, US)
Text:KISP 240156Z 00000KT 10SM FEW160 SCT250 M01/M05 A3001 RMK AO2 SLP163 T10061050
Temperature: -0.6°C ( 31°F)
Dewpoint: -5.0°C ( 23°F) [RH = 72%]
Pressure (altimeter):30.01 inches Hg (1016.3 mb) [Sea level pressure: 1016.3 mb]
Winds:calm
Visibility:10 or more sm (16+ km)
Ceiling:at least 12,000 feet AGL
Clouds: few clouds at 16000 feet AGL, scattered clouds at 25000 feet AGL